createdAt,value
2022-09-15T00:01:17.780Z,19.90
2022-09-15T00:03:46.384Z,19.80
2022-09-15T00:06:14.772Z,19.90
2022-09-15T00:08:43.598Z,19.80
2022-09-15T00:11:16.011Z,19.80
2022-09-15T00:13:44.498Z,19.80
2022-09-15T00:16:15.618Z,19.90
2022-09-15T00:18:44.466Z,19.90
2022-09-15T00:21:16.894Z,19.90
2022-09-15T00:23:45.068Z,20.00
2022-09-15T00:26:16.128Z,20.10
2022-09-15T00:28:45.334Z,20.10
2022-09-15T00:31:17.195Z,20.10
2022-09-15T00:33:48.486Z,20.00
2022-09-15T00:36:17.447Z,20.00
2022-09-15T00:38:45.758Z,20.00
2022-09-15T00:41:16.960Z,20.10
2022-09-15T00:43:52.333Z,20.20
2022-09-15T00:46:24.896Z,20.30
2022-09-15T00:48:58.719Z,20.30
2022-09-15T00:51:33.770Z,20.30
2022-09-15T00:54:05.556Z,20.30
2022-09-15T00:56:36.102Z,20.30
2022-09-15T00:59:10.697Z,20.40
2022-09-15T01:01:41.975Z,20.30
2022-09-15T01:04:10.912Z,20.30
2022-09-15T01:06:46.369Z,20.30
2022-09-15T01:09:19.051Z,20.20
2022-09-15T01:11:47.522Z,20.20
2022-09-15T01:14:15.893Z,20.30
2022-09-15T01:16:57.127Z,20.20
2022-09-15T01:20:05.635Z,20.20
2022-09-15T01:22:42.006Z,20.20
2022-09-15T01:25:20.652Z,20.20
2022-09-15T01:28:13.605Z,20.20
2022-09-15T01:30:45.681Z,20.20
2022-09-15T01:33:21.751Z,20.10
2022-09-15T01:36:11.675Z,20.10
2022-09-15T01:38:50.916Z,20.10
2022-09-15T01:41:25.412Z,20.00
2022-09-15T01:44:00.814Z,20.10
2022-09-15T01:46:35.953Z,20.20
2022-09-15T01:49:06.034Z,20.20
2022-09-15T01:51:35.756Z,20.20
2022-09-15T01:54:06.163Z,20.10
2022-09-15T01:56:34.334Z,20.10
2022-09-15T01:59:02.536Z,20.20
2022-09-15T02:01:40.598Z,20.20
2022-09-15T02:04:15.633Z,20.10
2022-09-15T02:06:53.374Z,20.10
2022-09-15T02:09:25.730Z,20.10
2022-09-15T02:12:01.760Z,20.20
2022-09-15T02:14:43.137Z,20.20
2022-09-15T02:17:16.278Z,20.20
2022-09-15T02:19:47.590Z,20.20
2022-09-15T02:22:23.375Z,20.10
2022-09-15T02:24:57.057Z,20.10
2022-09-15T02:27:29.526Z,20.10
2022-09-15T02:30:03.322Z,20.00
2022-09-15T02:32:35.202Z,20.00
2022-09-15T02:35:06.913Z,20.00
2022-09-15T02:37:37.994Z,20.00
2022-09-15T02:40:08.513Z,20.00
2022-09-15T02:42:37.026Z,20.00
2022-09-15T02:45:06.335Z,20.10
2022-09-15T02:47:35.829Z,20.10
2022-09-15T02:50:04.066Z,20.10
2022-09-15T02:52:32.218Z,20.10
2022-09-15T02:55:00.999Z,20.10
2022-09-15T02:57:29.133Z,20.00
2022-09-15T03:00:16.023Z,20.00
2022-09-15T03:02:49.932Z,20.00
2022-09-15T03:05:19.470Z,19.90
2022-09-15T03:07:47.630Z,19.80
2022-09-15T03:10:16.515Z,19.40
2022-09-15T03:12:46.308Z,18.90
2022-09-15T03:15:16.841Z,18.80
2022-09-15T03:17:48.037Z,18.60
2022-09-15T03:20:18.537Z,18.60
2022-09-15T03:22:46.744Z,18.50
2022-09-15T03:25:14.997Z,18.40
2022-09-15T03:27:43.305Z,18.40
2022-09-15T03:30:13.263Z,18.40
2022-09-15T03:32:41.398Z,18.40
2022-09-15T03:35:11.763Z,18.40
2022-09-15T03:37:39.878Z,18.40
2022-09-15T03:40:10.466Z,18.50
2022-09-15T03:42:38.611Z,18.50
2022-09-15T03:45:07.571Z,18.50
2022-09-15T03:47:35.696Z,18.50
2022-09-15T03:50:03.841Z,18.50
2022-09-15T03:52:33.766Z,18.40
2022-09-15T03:55:01.852Z,18.40
2022-09-15T03:57:30.573Z,18.30
2022-09-15T03:59:58.732Z,18.30
2022-09-15T04:02:27.059Z,18.20
2022-09-15T04:04:55.298Z,18.20
2022-09-15T04:07:23.413Z,18.30
2022-09-15T04:09:53.283Z,18.30
2022-09-15T04:12:21.423Z,18.40
2022-09-15T04:14:49.807Z,18.40
2022-09-15T04:17:17.939Z,18.40
2022-09-15T04:19:46.027Z,18.50
2022-09-15T04:22:17.837Z,18.50
2022-09-15T04:24:48.091Z,18.50
2022-09-15T04:27:18.036Z,18.50
2022-09-15T04:29:46.419Z,18.40
2022-09-15T04:32:14.582Z,18.50
2022-09-15T04:34:42.739Z,18.50
2022-09-15T04:37:11.633Z,18.50
2022-09-15T04:39:39.710Z,18.60
2022-09-15T04:42:08.016Z,18.60
2022-09-15T04:44:37.596Z,18.60
2022-09-15T04:47:06.283Z,18.70
2022-09-15T04:49:34.546Z,18.70
2022-09-15T04:52:05.651Z,18.70
2022-09-15T04:54:37.121Z,18.70
2022-09-15T04:57:05.735Z,18.80
2022-09-15T04:59:34.023Z,18.80
2022-09-15T05:02:03.777Z,18.80
2022-09-15T05:04:32.006Z,18.80
2022-09-15T05:07:00.395Z,18.80
2022-09-15T05:09:29.627Z,18.90
2022-09-15T05:11:59.944Z,18.80
2022-09-15T05:14:28.105Z,18.90
2022-09-15T05:16:56.220Z,19.00
2022-09-15T05:19:25.702Z,18.90
2022-09-15T05:21:53.813Z,18.90
2022-09-15T05:24:22.074Z,19.00
2022-09-15T05:26:50.235Z,18.90
2022-09-15T05:29:18.357Z,18.90
2022-09-15T05:31:46.497Z,18.90
2022-09-15T05:34:15.373Z,19.00
2022-09-15T05:36:44.818Z,19.10
2022-09-15T05:39:13.821Z,19.10
2022-09-15T05:41:41.962Z,19.20
2022-09-15T05:44:12.245Z,19.20
2022-09-15T05:46:40.446Z,19.20
2022-09-15T05:49:09.103Z,19.30
2022-09-15T05:51:37.933Z,19.30
2022-09-15T05:54:08.008Z,19.20
2022-09-15T05:56:36.199Z,19.20
2022-09-15T05:59:04.329Z,19.20
2022-09-15T06:01:32.793Z,19.20
2022-09-15T06:04:01.013Z,19.10
2022-09-15T06:06:29.148Z,19.10
2022-09-15T06:09:00.692Z,19.00
2022-09-15T06:11:33.714Z,19.00
2022-09-15T06:14:03.149Z,19.00
2022-09-15T06:16:33.682Z,19.00
2022-09-15T06:19:02.150Z,18.90
2022-09-15T06:21:32.044Z,18.90
2022-09-15T06:24:01.983Z,18.90
2022-09-15T06:26:31.548Z,18.80
2022-09-15T06:29:01.554Z,18.80
2022-09-15T06:31:32.940Z,18.80
2022-09-15T06:34:01.801Z,18.80
2022-09-15T06:36:31.470Z,18.80
2022-09-15T06:39:00.151Z,18.80
2022-09-15T06:41:47.157Z,18.80
2022-09-15T06:44:19.053Z,18.80
2022-09-15T06:46:47.248Z,18.90
2022-09-15T06:49:15.805Z,18.90
2022-09-15T06:51:43.896Z,18.80
2022-09-15T06:54:12.074Z,18.90
2022-09-15T06:56:40.222Z,18.90
2022-09-15T06:59:10.053Z,18.90
2022-09-15T07:01:39.749Z,18.90
2022-09-15T07:04:09.977Z,18.90
2022-09-15T07:06:39.907Z,19.00
2022-09-15T07:09:08.322Z,19.00
2022-09-15T07:11:36.413Z,19.00
2022-09-15T07:14:05.016Z,18.90
2022-09-15T07:16:33.218Z,18.90
2022-09-15T07:19:03.819Z,19.00
2022-09-15T07:21:32.034Z,19.00
2022-09-15T07:24:07.042Z,18.90
2022-09-15T07:26:37.140Z,19.10
2022-09-15T07:29:07.441Z,19.10
2022-09-15T07:31:37.730Z,19.00
2022-09-15T07:34:08.168Z,19.00
2022-09-15T07:36:36.606Z,19.00
2022-09-15T07:39:06.002Z,19.10
2022-09-15T07:41:34.767Z,19.10
2022-09-15T07:44:03.208Z,19.20
2022-09-15T07:46:33.542Z,19.30
2022-09-15T07:49:03.270Z,19.30
2022-09-15T07:51:33.123Z,19.40
2022-09-15T07:54:01.799Z,19.50
2022-09-15T07:56:29.895Z,19.60
2022-09-15T07:58:58.877Z,19.60
2022-09-15T08:01:27.181Z,19.70
2022-09-15T08:03:55.405Z,19.80
2022-09-15T08:06:25.763Z,19.90
2022-09-15T08:09:00.423Z,19.90
2022-09-15T08:11:29.098Z,19.80
2022-09-15T08:13:57.309Z,19.80
2022-09-15T08:16:26.323Z,19.90
2022-09-15T08:18:55.419Z,20.00
2022-09-15T08:21:24.622Z,20.20
2022-09-15T08:23:56.169Z,20.40
2022-09-15T08:26:25.146Z,20.60
2022-09-15T08:28:53.593Z,20.70
2022-09-15T08:31:24.096Z,20.80
2022-09-15T08:33:55.088Z,20.90
2022-09-15T08:36:24.516Z,20.80
2022-09-15T08:38:54.043Z,20.70
2022-09-15T08:41:25.522Z,20.40
2022-09-15T08:43:59.526Z,20.40
2022-09-15T08:46:34.646Z,20.60
2022-09-15T08:49:09.465Z,20.50
2022-09-15T08:51:43.792Z,20.50
2022-09-15T08:54:19.915Z,20.60
2022-09-15T08:56:49.709Z,20.70
2022-09-15T08:59:19.219Z,20.80
2022-09-15T09:02:07.914Z,20.80
2022-09-15T09:05:11.745Z,20.80
2022-09-15T09:07:59.773Z,21.10
2022-09-15T09:10:39.217Z,21.20
2022-09-15T09:13:19.648Z,21.00
2022-09-15T09:16:00.789Z,21.00
2022-09-15T09:18:50.727Z,20.90
2022-09-15T09:21:26.659Z,21.10
2022-09-15T09:24:03.526Z,21.20
2022-09-15T09:26:35.737Z,21.20
2022-09-15T09:29:13.005Z,21.30
2022-09-15T09:31:42.915Z,21.30
2022-09-15T09:34:21.651Z,21.30
2022-09-15T09:36:56.315Z,21.40
2022-09-15T09:39:24.749Z,21.50
2022-09-15T09:41:57.044Z,21.70
2022-09-15T09:44:31.880Z,21.90
2022-09-15T09:47:00.595Z,22.00
2022-09-15T09:49:31.261Z,21.90
2022-09-15T09:52:02.440Z,22.10
2022-09-15T09:54:32.664Z,22.20
2022-09-15T09:57:29.487Z,22.30
2022-09-15T09:59:57.984Z,22.10
2022-09-15T10:02:28.100Z,22.10
2022-09-15T10:05:13.497Z,22.10
2022-09-15T10:07:44.794Z,22.10
2022-09-15T10:10:21.793Z,22.00
2022-09-15T10:12:55.733Z,22.00
2022-09-15T10:15:26.847Z,22.10
2022-09-15T10:17:57.053Z,22.30
2022-09-15T10:20:32.382Z,22.40
2022-09-15T10:23:05.797Z,22.40
2022-09-15T10:25:55.510Z,22.50
2022-09-15T10:28:28.415Z,22.40
2022-09-15T10:31:05.061Z,22.50
2022-09-15T10:33:35.142Z,22.40
2022-09-15T10:36:08.828Z,22.50
2022-09-15T10:38:44.231Z,22.70
2022-09-15T10:41:21.952Z,22.70
2022-09-15T10:44:10.967Z,22.50
2022-09-15T10:46:49.727Z,22.60
2022-09-15T10:49:31.161Z,22.80
2022-09-15T10:52:09.594Z,22.70
2022-09-15T10:54:58.210Z,22.50
2022-09-15T10:57:40.225Z,22.30
2022-09-15T11:00:12.612Z,22.40
2022-09-15T11:03:19.651Z,22.30
2022-09-15T11:06:02.448Z,22.50
2022-09-15T11:08:45.552Z,22.50
2022-09-15T11:11:22.234Z,22.40
2022-09-15T11:14:01.233Z,22.40
2022-09-15T11:16:44.013Z,22.60
2022-09-15T11:19:31.339Z,22.80
2022-09-15T11:22:02.945Z,22.50
2022-09-15T11:24:39.393Z,22.70
2022-09-15T11:27:15.232Z,22.80
2022-09-15T11:30:02.862Z,22.60
2022-09-15T11:32:39.615Z,22.40
2022-09-15T11:39:01.983Z,22.50
2022-09-15T11:41:38.337Z,22.50
2022-09-15T11:44:18.834Z,22.40
2022-09-15T11:47:04.165Z,22.40
2022-09-15T11:49:40.211Z,22.30
2022-09-15T11:52:20.275Z,22.30
2022-09-15T11:54:57.933Z,22.20
2022-09-15T11:57:31.837Z,22.10
2022-09-15T12:00:06.211Z,22.10
2022-09-15T12:02:41.410Z,22.10
2022-09-15T12:05:16.446Z,22.20
2022-09-15T12:07:49.647Z,22.10
2022-09-15T12:10:23.006Z,22.20
2022-09-15T12:12:52.624Z,22.20
2022-09-15T12:15:27.260Z,22.30
2022-09-15T12:18:34.329Z,22.40
2022-09-15T12:21:07.166Z,22.20
2022-09-15T12:23:41.240Z,21.80
2022-09-15T12:26:18.855Z,21.50
2022-09-15T12:28:58.659Z,21.30
2022-09-15T12:31:30.893Z,21.00
2022-09-15T12:34:00.801Z,20.80
2022-09-15T12:36:42.474Z,20.60
2022-09-15T12:39:30.088Z,20.70
2022-09-15T12:42:18.608Z,20.20
2022-09-15T12:44:51.438Z,19.60
2022-09-15T12:47:31.793Z,19.30
2022-09-15T12:50:06.153Z,19.10
2022-09-15T12:52:45.795Z,18.80
2022-09-15T12:55:21.164Z,18.50
2022-09-15T12:57:55.920Z,18.60
2022-09-15T13:01:00.709Z,18.70
2022-09-15T13:03:55.353Z,18.70
2022-09-15T13:06:25.013Z,18.40
2022-09-15T13:08:56.354Z,18.20
2022-09-15T13:11:37.905Z,18.00
2022-09-15T13:14:24.443Z,18.00
2022-09-15T13:16:57.352Z,18.10
2022-09-15T13:19:30.663Z,18.20
2022-09-15T13:22:04.341Z,18.20
2022-09-15T13:24:47.223Z,18.10
2022-09-15T13:27:19.199Z,17.80
2022-09-15T13:29:50.584Z,17.70
2022-09-15T13:32:31.797Z,17.70
2022-09-15T13:35:28.313Z,17.80
2022-09-15T13:38:29.120Z,17.80
2022-09-15T13:41:43.099Z,18.00
2022-09-15T13:44:52.475Z,18.00
2022-09-15T13:47:35.118Z,18.10
2022-09-15T13:50:17.997Z,18.10
2022-09-15T13:53:15.441Z,18.10
2022-09-15T13:55:45.613Z,18.10
2022-09-15T14:01:07.607Z,18.20
2022-09-15T14:03:42.461Z,18.10
2022-09-15T14:06:18.013Z,18.10
2022-09-15T14:08:50.016Z,18.20
2022-09-15T14:11:24.825Z,18.30
2022-09-15T14:13:56.624Z,18.30
2022-09-15T14:16:34.027Z,18.30
2022-09-15T14:19:04.034Z,18.30
2022-09-15T14:21:33.961Z,18.40
2022-09-15T14:24:06.200Z,18.30
2022-09-15T14:26:37.001Z,18.40
2022-09-15T14:29:08.495Z,18.40
2022-09-15T14:31:38.947Z,18.50
2022-09-15T14:34:15.591Z,18.60
2022-09-15T14:36:43.793Z,18.60
2022-09-15T14:39:21.294Z,18.60
2022-09-15T14:41:50.333Z,18.50
2022-09-15T14:47:21.777Z,18.50
2022-09-15T14:49:50.332Z,18.50
2022-09-15T14:52:27.334Z,18.60
2022-09-15T14:54:59.402Z,18.50
2022-09-15T14:57:31.345Z,18.50
2022-09-15T15:00:05.394Z,18.40
2022-09-15T15:02:49.408Z,18.40
2022-09-15T15:05:22.572Z,18.40
2022-09-15T15:07:51.415Z,18.30
2022-09-15T15:10:24.244Z,18.20
2022-09-15T15:12:56.633Z,18.30
2022-09-15T15:15:26.730Z,18.30
2022-09-15T15:17:55.591Z,18.40
2022-09-15T15:20:25.608Z,18.30
2022-09-15T15:23:15.448Z,18.30
2022-09-15T15:25:44.269Z,18.30
2022-09-15T15:28:31.713Z,18.30
2022-09-15T15:31:20.042Z,18.30
2022-09-15T15:33:59.495Z,18.20
2022-09-15T15:36:34.566Z,18.10
2022-09-15T15:39:05.142Z,18.10
2022-09-15T15:41:36.824Z,18.00
2022-09-15T15:44:08.892Z,17.90
2022-09-15T15:46:53.227Z,17.90
2022-09-15T15:49:22.820Z,17.90
2022-09-15T15:51:50.952Z,17.90
2022-09-15T15:54:19.079Z,17.90
2022-09-15T15:56:47.532Z,17.90
2022-09-15T15:59:16.634Z,17.90
2022-09-15T16:01:45.056Z,17.90
2022-09-15T16:04:14.547Z,17.80
2022-09-15T16:06:45.343Z,17.80
2022-09-15T16:09:15.595Z,17.80
2022-09-15T16:11:43.815Z,17.80
2022-09-15T16:14:14.581Z,17.80
2022-09-15T16:16:42.688Z,17.80
2022-09-15T16:19:13.691Z,17.80
2022-09-15T16:21:43.734Z,17.80
2022-09-15T16:24:14.754Z,17.80
2022-09-15T16:26:43.446Z,18.00
2022-09-15T16:29:12.499Z,18.00
2022-09-15T16:31:42.873Z,18.10
2022-09-15T16:34:14.135Z,18.10
2022-09-15T16:36:43.607Z,18.20
2022-09-15T16:39:11.708Z,18.20
2022-09-15T16:41:40.364Z,18.10
2022-09-15T16:44:18.739Z,18.20
2022-09-15T16:46:47.031Z,18.20
2022-09-15T16:49:15.562Z,18.10
2022-09-15T16:51:45.124Z,18.10
2022-09-15T16:54:16.700Z,18.00
2022-09-15T16:56:45.525Z,17.90
2022-09-15T16:59:13.981Z,18.00
2022-09-15T17:01:42.277Z,18.00
2022-09-15T17:04:19.137Z,18.00
2022-09-15T17:06:48.647Z,18.00
2022-09-15T17:09:16.698Z,18.00
2022-09-15T17:11:44.843Z,17.90
2022-09-15T17:14:16.107Z,17.80
2022-09-15T17:16:47.330Z,17.70
2022-09-15T17:19:16.086Z,17.60
2022-09-15T17:21:44.168Z,17.60
2022-09-15T17:24:14.029Z,17.60
2022-09-15T17:26:42.293Z,17.50
2022-09-15T17:29:10.411Z,17.50
2022-09-15T17:31:38.548Z,17.50
2022-09-15T17:34:14.011Z,17.50
2022-09-15T17:36:42.335Z,17.40
2022-09-15T17:39:10.438Z,17.40
2022-09-15T17:41:39.887Z,17.50
2022-09-15T17:44:12.221Z,17.30
2022-09-15T17:46:40.476Z,17.30
2022-09-15T17:49:08.677Z,17.30
2022-09-15T17:51:36.737Z,17.40
2022-09-15T17:54:07.112Z,17.30
2022-09-15T17:56:35.337Z,17.30
2022-09-15T17:59:04.845Z,17.30
2022-09-15T18:01:33.046Z,17.20
2022-09-15T18:04:01.257Z,17.10
2022-09-15T18:06:29.413Z,17.10
2022-09-15T18:08:58.052Z,17.10
2022-09-15T18:11:28.440Z,17.10
2022-09-15T18:13:58.543Z,17.10
2022-09-15T18:16:28.022Z,17.00
2022-09-15T18:18:56.111Z,17.00
2022-09-15T18:21:28.649Z,17.00
2022-09-15T18:23:57.136Z,16.90
2022-09-15T18:26:26.586Z,16.90
2022-09-15T18:28:56.938Z,16.80
2022-09-15T18:31:25.113Z,16.80
2022-09-15T18:33:54.747Z,16.80
2022-09-15T18:36:22.886Z,16.80
2022-09-15T18:38:51.083Z,16.80
2022-09-15T18:41:19.456Z,16.80
2022-09-15T18:43:49.163Z,16.80
2022-09-15T18:46:18.313Z,16.80
2022-09-15T18:48:46.571Z,16.80
2022-09-15T18:51:23.722Z,16.80
2022-09-15T18:53:54.505Z,16.70
2022-09-15T18:56:22.811Z,16.60
2022-09-15T18:58:54.554Z,16.60
2022-09-15T19:01:22.831Z,16.60
2022-09-15T19:03:51.101Z,16.60
2022-09-15T19:06:20.694Z,16.60
2022-09-15T19:08:48.981Z,16.60
2022-09-15T19:11:17.356Z,16.60
2022-09-15T19:13:45.536Z,16.50
2022-09-15T19:16:13.886Z,16.60
2022-09-15T19:18:44.885Z,16.50
2022-09-15T19:21:13.730Z,16.60
2022-09-15T19:23:43.327Z,16.50
2022-09-15T19:26:13.739Z,16.50
2022-09-15T19:28:41.901Z,16.40
2022-09-15T19:31:10.113Z,16.50
2022-09-15T19:33:38.935Z,16.50
2022-09-15T19:36:27.481Z,16.50
2022-09-15T19:38:58.340Z,16.40
2022-09-15T19:41:26.461Z,16.50
2022-09-15T19:43:54.971Z,16.40
2022-09-15T19:46:25.072Z,16.40
2022-09-15T19:48:53.803Z,16.40
2022-09-15T19:51:22.225Z,16.40
2022-09-15T19:53:50.659Z,16.30
2022-09-15T19:56:22.366Z,16.30
2022-09-15T19:58:51.091Z,16.30
2022-09-15T20:01:19.287Z,16.20
2022-09-15T20:03:47.461Z,16.10
2022-09-15T20:06:15.573Z,16.00
2022-09-15T20:08:45.653Z,16.00
2022-09-15T20:11:15.311Z,15.90
2022-09-15T20:13:45.403Z,15.80
2022-09-15T20:16:17.662Z,15.80
2022-09-15T20:18:47.831Z,15.80
2022-09-15T20:21:32.543Z,15.70
2022-09-15T20:24:06.373Z,15.70
2022-09-15T20:26:35.014Z,15.70
2022-09-15T20:29:05.419Z,15.60
2022-09-15T20:31:34.243Z,15.60
2022-09-15T20:34:02.897Z,15.60
2022-09-15T20:36:33.916Z,15.60
2022-09-15T20:39:03.534Z,15.50
2022-09-15T20:41:32.967Z,15.50
2022-09-15T20:44:01.659Z,15.50
2022-09-15T20:46:31.443Z,15.50
2022-09-15T20:48:59.625Z,15.50
2022-09-15T20:51:31.781Z,15.60
2022-09-15T20:54:01.290Z,15.60
2022-09-15T20:56:30.754Z,15.50
2022-09-15T20:58:59.829Z,15.50
2022-09-15T21:01:31.955Z,15.50
2022-09-15T21:04:00.291Z,15.60
2022-09-15T21:06:29.535Z,15.50
2022-09-15T21:08:58.648Z,15.50
2022-09-15T21:11:28.385Z,15.50
2022-09-15T21:13:57.518Z,15.60
2022-09-15T21:16:27.536Z,15.60
2022-09-15T21:18:58.577Z,15.60
2022-09-15T21:21:27.995Z,15.60
2022-09-15T21:23:58.696Z,15.60
2022-09-15T21:26:28.660Z,15.60
2022-09-15T21:28:57.634Z,15.60
2022-09-15T21:31:27.821Z,15.60
2022-09-15T21:33:58.555Z,15.60
2022-09-15T21:36:29.613Z,15.60
2022-09-15T21:38:59.845Z,15.70
2022-09-15T21:41:30.214Z,15.60
2022-09-15T21:43:59.387Z,15.60
2022-09-15T21:57:02.658Z,15.70
2022-09-15T21:59:30.813Z,15.70
2022-09-15T22:01:59.009Z,15.80
2022-09-15T22:04:27.149Z,15.70
2022-09-15T22:06:55.308Z,15.60
2022-09-15T22:09:23.432Z,15.60
2022-09-15T22:11:52.589Z,15.70
2022-09-15T22:14:22.516Z,15.60
2022-09-15T22:16:50.732Z,15.60
2022-09-15T22:19:19.025Z,15.60
2022-09-15T22:21:47.145Z,15.60
2022-09-15T22:24:15.503Z,15.60
2022-09-15T22:26:44.548Z,15.60
2022-09-15T22:29:13.355Z,15.60
2022-09-15T22:31:43.138Z,15.50
2022-09-15T22:34:11.382Z,15.50
2022-09-15T22:36:39.586Z,15.50
2022-09-15T22:39:07.782Z,15.60
2022-09-15T22:41:38.237Z,15.60
2022-09-15T22:44:07.610Z,15.70
2022-09-15T22:46:36.262Z,15.70
2022-09-15T22:49:05.774Z,15.70
2022-09-15T22:51:33.986Z,15.70
2022-09-15T22:54:03.013Z,15.70
2022-09-15T22:56:31.637Z,15.70
2022-09-15T22:59:00.761Z,15.70
2022-09-15T23:01:31.147Z,15.60
2022-09-15T23:04:02.820Z,15.60
2022-09-15T23:06:34.061Z,15.50
2022-09-15T23:09:03.675Z,15.60
2022-09-15T23:11:33.297Z,15.60
2022-09-15T23:14:02.256Z,15.60
2022-09-15T23:16:32.346Z,15.50
2022-09-15T23:19:01.352Z,15.50
2022-09-15T23:21:30.987Z,15.50
2022-09-15T23:23:59.285Z,15.50
2022-09-15T23:26:27.827Z,15.50
2022-09-15T23:28:56.155Z,15.40
2022-09-15T23:31:24.341Z,15.50
2022-09-15T23:33:52.503Z,15.40
2022-09-15T23:36:21.184Z,15.40
2022-09-15T23:38:51.124Z,15.30
2022-09-15T23:41:20.053Z,15.30
2022-09-15T23:43:48.372Z,15.30
2022-09-15T23:46:16.598Z,15.30
2022-09-15T23:48:44.913Z,15.30
2022-09-15T23:51:13.042Z,15.30
2022-09-15T23:53:41.200Z,15.30
2022-09-15T23:56:10.703Z,15.30
2022-09-15T23:58:38.979Z,15.30
